Albuquerque International Sunport Airport
KABQ : now visible

Airfield :











YOU CAN JOIN US ON...

 
LOGIN :

Register | Disclaimer

   EN    FR    IT 

 









Legend :    VFR   Marginal VFR   IFR   Intensive IFR   Very Intensive IFR
Visi :
Ceiling :
>= 8 km
>= 3000ft
5 to 8 km
1000 to 3000 ft
1500m to 5 km
500 to 1000 ft
800 to 1500m
200 to 500 ft
< 800m
< 200 ft
Symbols :   Thunderstorms  Fog  Heavy snow  Heavy precipitations  Wind > 20 kt






- Airport Elevation : 5355 ft
- IATA code : ABQ


KABQ - Albuquerque International Sunport

CURRENT METAR :
  • 130352Z 30005KT 10SM BKN250 06/M05 A3018 RMK AO2 SLP221 T00561050

EXPIRED METARs :
  • 130252Z 24005KT 10SM BKN260 06/M06 A3019 RMK AO2 SLP224 T00611056 50007
  • 130152Z 34011G17KT 10SM BKN260 08/M06 A3019 RMK AO2 SLP219 T00831061

TAF KABQ
Valid from the 13 at 00:00 until the 14 at 00:00 UTC


122324Z 1300/1324 VRB04KT P6SM SCT250
FM130300 36007KT P6SM SCT200
FM131800 31008KT P6SM BKN200
FM132100 32015G25KT P6SM BKN150



MET'MAP, your aeronautical weather chart ! - Copyright ORBIFLY December 2007 - Disclaimer

ORBIFLY MET'MAP TEAM :

Programming & Development : Alexandra Zaïnal
Concept & original design : Baudouin d'Aumeries
Assistance for programming : Marc-Olivier Méhu
Technical & hardware support : Manuel Goepfert

Contact : metmap@orbifly.com




SOURCES & CREDITS :

   NOAA       Earth
Advisory